Camp Meeker, California
Current Conditions -  °F | °C
As of 12:36 AM on Friday 19 Dec 2014 (Local Time) from KSTS Reporting Station
Light Rain Light Rain  
Wind Chill: 52°   Ceiling: 900
Heat Index: 52°   Visibility: 2.5mi
Dew Point: 52°   Wind: 0mph
Humidity: 100%   Direction: NA
Pressure: 30.12"   Gusts: NA
Location:  38.43°N, 122.96°W
Report Text: KSTS 190836Z AUTO 00000KT 2 1/2SM -RA BR BKN009 OVC016 11/11 A3012 RMK AO2 CIG 007V014 P0002
Loading
Personal Weather Stations






























Interactive Weather Map New forecast layout! Learn more

10-Day Weather Forecast

Advertisements
Track Severe Weather on mobile